createdAt,value
2022-08-08T00:03:31.499Z,96103.00
2022-08-08T00:09:16.679Z,96111.00
2022-08-08T00:15:10.545Z,96107.00
2022-08-08T00:20:56.940Z,96116.00
2022-08-08T00:26:33.998Z,96115.00
2022-08-08T00:32:20.426Z,96108.00
2022-08-08T00:38:06.325Z,96102.00
2022-08-08T00:44:15.163Z,96095.00
2022-08-08T00:50:23.447Z,96103.00
2022-08-08T00:56:29.539Z,96098.00
2022-08-08T01:03:59.627Z,96100.00
2022-08-08T01:09:35.767Z,96111.00
2022-08-08T01:15:54.530Z,96099.00
2022-08-08T01:22:09.817Z,96100.00
2022-08-08T01:28:04.058Z,96102.00
2022-08-08T01:34:05.071Z,96101.00
2022-08-08T01:40:24.505Z,96101.00
2022-08-08T01:46:24.797Z,96100.00
2022-08-08T01:54:05.122Z,96096.00
2022-08-08T01:58:46.974Z,96103.00
2022-08-08T02:04:35.295Z,96110.00
2022-08-08T02:10:49.723Z,96119.00
2022-08-08T02:17:20.377Z,96110.00
2022-08-08T02:23:22.946Z,96121.00
2022-08-08T02:29:52.549Z,96119.00
2022-08-08T02:36:03.473Z,96114.00
2022-08-08T02:42:05.602Z,96119.00
2022-08-08T02:48:33.477Z,96129.00
2022-08-08T02:54:39.667Z,96124.00
2022-08-08T03:00:27.276Z,96134.00
2022-08-08T03:06:30.599Z,96125.00
2022-08-08T03:12:36.840Z,96126.00
2022-08-08T03:18:57.794Z,96132.00
2022-08-08T03:24:27.046Z,96129.00
2022-08-08T03:30:09.774Z,96121.00
2022-08-08T03:35:43.719Z,96129.00
2022-08-08T03:41:22.859Z,96128.00
2022-08-08T03:47:19.697Z,96136.00
2022-08-08T03:52:52.087Z,96124.00
2022-08-08T03:58:34.082Z,96134.00
2022-08-08T04:04:13.765Z,96130.00
2022-08-08T04:10:03.003Z,96139.00
2022-08-08T04:15:38.890Z,96138.00
2022-08-08T04:21:10.858Z,96141.00
2022-08-08T04:26:56.871Z,96148.00
2022-08-08T04:32:30.822Z,96152.00
2022-08-08T04:38:03.384Z,96161.00
2022-08-08T04:43:45.874Z,96167.00
2022-08-08T04:49:28.637Z,96171.00
2022-08-08T04:55:10.877Z,96173.00
2022-08-08T05:00:38.994Z,96183.00
2022-08-08T05:06:13.439Z,96185.00
2022-08-08T05:11:56.556Z,96192.00
2022-08-08T05:17:26.861Z,96188.00
2022-08-08T05:23:05.581Z,96202.00
2022-08-08T05:28:56.357Z,96191.00
2022-08-08T05:34:26.825Z,96191.00
2022-08-08T05:39:56.304Z,96204.00
2022-08-08T05:45:41.535Z,96203.00
2022-08-08T05:51:13.274Z,96200.00
2022-08-08T05:56:48.341Z,96217.00
2022-08-08T06:02:47.904Z,96210.00
2022-08-08T06:08:33.247Z,96215.00
2022-08-08T06:14:07.278Z,96221.00
2022-08-08T06:19:42.701Z,96219.00
2022-08-08T06:25:11.101Z,96231.00
2022-08-08T06:30:44.869Z,96232.00
2022-08-08T06:36:21.892Z,96235.00
2022-08-08T06:42:03.312Z,96230.00
2022-08-08T06:47:58.320Z,96237.00
2022-08-08T06:53:39.510Z,96242.00
2022-08-08T06:59:12.253Z,96252.00
2022-08-08T07:05:24.567Z,96260.00
2022-08-08T07:11:00.215Z,96252.00
2022-08-08T07:17:09.572Z,96252.00
2022-08-08T07:23:23.556Z,96257.00
2022-08-08T07:28:56.431Z,96257.00
2022-08-08T07:34:31.752Z,96258.00
2022-08-08T07:40:05.260Z,96265.00
2022-08-08T07:46:05.170Z,96274.00
2022-08-08T07:51:45.010Z,96271.00
2022-08-08T07:57:36.117Z,96268.00
2022-08-08T08:03:20.638Z,96268.00
2022-08-08T08:09:17.496Z,96274.00
2022-08-08T08:15:07.352Z,96276.00
2022-08-08T08:20:40.820Z,96279.00
2022-08-08T08:26:12.783Z,96283.00
2022-08-08T08:31:57.560Z,96285.00
2022-08-08T08:37:30.183Z,96289.00
2022-08-08T08:43:00.753Z,96288.00
2022-08-08T08:48:29.930Z,96280.00
2022-08-08T08:54:02.393Z,96287.00
2022-08-08T08:59:58.758Z,96287.00
2022-08-08T09:05:53.757Z,96292.00
2022-08-08T09:11:19.622Z,96291.00
2022-08-08T09:16:52.104Z,96291.00
2022-08-08T09:22:26.597Z,96282.00
2022-08-08T09:27:58.538Z,96284.00
2022-08-08T09:34:06.309Z,96290.00
2022-08-08T09:39:24.384Z,96294.00
2022-08-08T09:46:00.644Z,96291.00
2022-08-08T09:51:16.195Z,96290.00
2022-08-08T09:56:50.164Z,96284.00
2022-08-08T10:02:28.932Z,96288.00
2022-08-08T10:07:59.882Z,96281.00
2022-08-08T10:13:35.410Z,96277.00
2022-08-08T10:19:07.692Z,96282.00
2022-08-08T10:24:46.346Z,96268.00
2022-08-08T10:31:00.641Z,96277.00
2022-08-08T10:36:21.111Z,96274.00
2022-08-08T10:42:15.335Z,96268.00
2022-08-08T10:47:55.200Z,96282.00
2022-08-08T10:53:56.607Z,96279.00
2022-08-08T10:59:26.961Z,96278.00
2022-08-08T11:05:05.561Z,96277.00
2022-08-08T11:10:43.155Z,96271.00
2022-08-08T11:16:34.652Z,96268.00
2022-08-08T11:22:05.027Z,96274.00
2022-08-08T11:27:36.953Z,96279.00
2022-08-08T11:33:12.423Z,96275.00
2022-08-08T11:38:55.499Z,96269.00
2022-08-08T11:44:28.970Z,96270.00
2022-08-08T11:50:03.600Z,96269.00
2022-08-08T11:55:49.282Z,96268.00
2022-08-08T12:01:18.394Z,96262.00
2022-08-08T12:06:49.456Z,96258.00
2022-08-08T12:12:28.753Z,96250.00
2022-08-08T12:17:57.183Z,96248.00
2022-08-08T12:23:43.931Z,96246.00
2022-08-08T12:29:40.310Z,96247.00
2022-08-08T12:35:21.513Z,96248.00
2022-08-08T12:40:56.337Z,96247.00
2022-08-08T12:46:26.744Z,96248.00
2022-08-08T12:52:00.121Z,96247.00
2022-08-08T12:57:31.130Z,96241.00
2022-08-08T13:03:00.827Z,96241.00
2022-08-08T13:08:40.852Z,96241.00
2022-08-08T13:14:21.474Z,96244.00
2022-08-08T13:20:06.364Z,96236.00
2022-08-08T13:25:36.510Z,96217.00
2022-08-08T13:31:05.585Z,96216.00
2022-08-08T13:36:40.473Z,96219.00
2022-08-08T13:42:12.669Z,96210.00
2022-08-08T13:47:55.519Z,96211.00
2022-08-08T13:53:36.345Z,96204.00
2022-08-08T13:59:05.452Z,96216.00
2022-08-08T14:04:35.215Z,96212.00
2022-08-08T14:10:12.119Z,96216.00
2022-08-08T14:15:50.393Z,96210.00
2022-08-08T14:21:20.672Z,96209.00
2022-08-08T14:26:55.423Z,96206.00
2022-08-08T14:32:29.968Z,96200.00
2022-08-08T14:38:09.447Z,96204.00
2022-08-08T14:44:10.253Z,96206.00
2022-08-08T14:50:05.826Z,96211.00
2022-08-08T14:55:41.269Z,96213.00
2022-08-08T15:01:23.216Z,96205.00
2022-08-08T15:07:04.285Z,96212.00
2022-08-08T15:12:37.389Z,96218.00
2022-08-08T15:18:10.703Z,96211.00
2022-08-08T15:23:43.192Z,96218.00
2022-08-08T15:29:16.203Z,96219.00
2022-08-08T15:34:57.004Z,96214.00
2022-08-08T15:40:28.544Z,96219.00
2022-08-08T15:45:59.034Z,96217.00
2022-08-08T15:51:38.920Z,96217.00
2022-08-08T15:57:16.525Z,96210.00
2022-08-08T16:03:01.813Z,96213.00
2022-08-08T16:08:35.429Z,96214.00
2022-08-08T16:14:15.738Z,96208.00
2022-08-08T16:19:59.542Z,96206.00
2022-08-08T16:25:46.310Z,96212.00
2022-08-08T16:37:18.174Z,96218.00
2022-08-08T16:42:46.287Z,96216.00
2022-08-08T16:48:23.033Z,96221.00
2022-08-08T16:55:02.821Z,96222.00
2022-08-08T16:59:41.055Z,96220.00
2022-08-08T17:05:19.938Z,96212.00
2022-08-08T17:10:57.971Z,96236.00
2022-08-08T17:16:28.613Z,96235.00
2022-08-08T17:21:57.884Z,96243.00
2022-08-08T17:27:41.834Z,96248.00
2022-08-08T17:34:35.731Z,96253.00
2022-08-08T17:39:05.363Z,96251.00
2022-08-08T17:44:52.777Z,96262.00
2022-08-08T17:50:20.762Z,96265.00
2022-08-08T17:56:06.148Z,96276.00
2022-08-08T18:01:56.871Z,96277.00
2022-08-08T18:08:01.126Z,96282.00
2022-08-08T18:13:13.428Z,96289.00
2022-08-08T18:18:52.772Z,96287.00
2022-08-08T18:24:27.643Z,96291.00
2022-08-08T18:29:58.250Z,96291.00
2022-08-08T18:35:34.067Z,96294.00
2022-08-08T18:41:09.607Z,96287.00
2022-08-08T18:46:56.350Z,96296.00
2022-08-08T18:52:25.442Z,96307.00
2022-08-08T18:57:54.093Z,96307.00
2022-08-08T19:03:22.057Z,96314.00
2022-08-08T19:08:51.788Z,96321.00
2022-08-08T19:14:20.255Z,96319.00
2022-08-08T19:20:02.586Z,96325.00
2022-08-08T19:26:26.866Z,96329.00
2022-08-08T19:31:19.664Z,96343.00
2022-08-08T19:36:52.066Z,96343.00
2022-08-08T19:42:20.284Z,96342.00
2022-08-08T19:47:52.468Z,96345.00
2022-08-08T19:53:46.803Z,96352.00
2022-08-08T19:59:14.437Z,96357.00
2022-08-08T20:04:46.803Z,96357.00
2022-08-08T20:10:18.110Z,96353.00
2022-08-08T20:15:52.582Z,96349.00
2022-08-08T20:21:32.014Z,96350.00
2022-08-08T20:27:07.042Z,96350.00
2022-08-08T20:32:37.643Z,96347.00
2022-08-08T20:38:08.779Z,96350.00
2022-08-08T20:43:44.078Z,96346.00
2022-08-08T20:49:17.437Z,96350.00
2022-08-08T20:54:45.563Z,96343.00
2022-08-08T21:00:14.861Z,96346.00
2022-08-08T21:05:49.375Z,96346.00
2022-08-08T21:11:51.230Z,96341.00
2022-08-08T21:17:15.820Z,96351.00
2022-08-08T21:22:48.635Z,96357.00
2022-08-08T21:28:35.791Z,96357.00
2022-08-08T21:34:04.025Z,96357.00
2022-08-08T21:39:56.189Z,96348.00
2022-08-08T21:47:59.728Z,96346.00
2022-08-08T21:51:11.243Z,96343.00
2022-08-08T21:56:43.440Z,96339.00
2022-08-08T22:02:14.229Z,96343.00
2022-08-08T22:07:48.166Z,96341.00
2022-08-08T22:13:19.539Z,96334.00
2022-08-08T22:18:52.975Z,96335.00
2022-08-08T22:24:23.798Z,96335.00
2022-08-08T22:30:01.944Z,96339.00
2022-08-08T22:36:04.173Z,96332.00
2022-08-08T22:41:21.624Z,96334.00
2022-08-08T22:46:51.589Z,96331.00
2022-08-08T22:52:25.838Z,96333.00
2022-08-08T22:57:54.517Z,96330.00
2022-08-08T23:03:25.968Z,96323.00
2022-08-08T23:09:14.004Z,96330.00
2022-08-08T23:14:56.262Z,96330.00
2022-08-08T23:20:28.190Z,96336.00
2022-08-08T23:25:57.035Z,96334.00
2022-08-08T23:31:24.981Z,96334.00
2022-08-08T23:36:57.890Z,96328.00
2022-08-08T23:42:26.336Z,96322.00
2022-08-08T23:49:01.097Z,96322.00
2022-08-08T23:54:05.358Z,96329.00
2022-08-08T23:59:31.923Z,96325.00
